Talitha — ZCAN7 — position and weather

sailwx.info

Track history (hours):
 
Tides and Currents Weather Stations Pressure Air Temp Water Temp Dewpoint Dewpoint Depression Visibility Wind Speed Wind Dir Waves Ship Positions

Talitha

Last reported at 2014-Aug-12 00:32 UTC. Time now 2014-Sep-18 21:50 UTC.
Position N 40°32' E 014°09'.
Warning: this ship's position is 37 days out of date.

Length 100 m; draft 4.7 m.

Type: Pleasure craft. MMSI: 310051000.

Date/timePositionNaut miles runAvg speedWind from/ knotsBaromVisibWave heightAir tempDewpointWater temp
2014-Aug-12 00:32N 40°32' E 014°09'16 2.3
2014-Aug-11 17:27N 40°37' E 014°30'7 2.2
2014-Aug-11 14:16N 40°34' E 014°21'0 0.0
2014-Aug-11 13:08N 40°34' E 014°21'0 0.0
2014-Aug-11 11:32N 40°34' E 014°21'0 0.0
2014-Aug-11 10:22N 40°35' E 014°21'5 0.9
2014-Aug-11 04:22N 40°32' E 014°15'0 0.0
2014-Aug-11 03:28N 40°32' E 014°15'0 0.0
2014-Aug-11 02:31N 40°32' E 014°15'0 0.0
2014-Aug-11 01:13N 40°32' E 014°15'0 0.0
2014-Aug-11 00:28N 40°32' E 014°15'0 0.0
2014-Aug-10 23:31N 40°32' E 014°15'0 0.0
2014-Aug-10 22:04N 40°32' E 014°15'0 0.0
2014-Aug-10 21:16N 40°32' E 014°15'0 0.0
2014-Aug-10 20:28N 40°32' E 014°15'0 0.0
2014-Aug-10 19:28N 40°32' E 014°15'0 0.0
2014-Aug-10 18:25N 40°32' E 014°15'0 0.0
2014-Aug-10 17:25N 40°32' E 014°15'0 0.0
2014-Aug-10 16:31N 40°32' E 014°15'5 4.9
2014-Aug-10 15:30N 40°37' E 014°16'1111.9
2014-Aug-10 14:33N 40°49' E 014°14'1 0.5
2014-Aug-10 12:24N 40°50' E 014°14'0 0.0
2014-Aug-10 10:24N 40°50' E 014°14'0 0.0
2014-Aug-09 21:20N 40°50' E 014°14'0 0.0
2014-Aug-09 18:26N 40°50' E 014°14'  
Track history (hours):
 
Tides and Currents Weather Stations Pressure Air Temp Water Temp Dewpoint Dewpoint Depression Visibility Wind Speed Wind Dir Waves Ship Positions

Talitha

Last reported at 2014-Aug-12 00:32 UTC. Time now 2014-Sep-18 21:50 UTC.
Position N 40°32' E 014°09'.
Warning: this ship's position is 37 days out of date.

Length 100 m; draft 4.7 m.

Type: Pleasure craft. MMSI: 310051000.

Date/timePositionNaut miles runAvg speedWind from/ knotsBaromVisibWave heightAir tempDewpointWater temp
2014-Aug-12 00:32N 40°32' E 014°09'16 2.3
2014-Aug-11 17:27N 40°37' E 014°30'7 2.2
2014-Aug-11 14:16N 40°34' E 014°21'0 0.0
2014-Aug-11 13:08N 40°34' E 014°21'0 0.0
2014-Aug-11 11:32N 40°34' E 014°21'0 0.0
2014-Aug-11 10:22N 40°35' E 014°21'5 0.9
2014-Aug-11 04:22N 40°32' E 014°15'0 0.0
2014-Aug-11 03:28N 40°32' E 014°15'0 0.0
2014-Aug-11 02:31N 40°32' E 014°15'0 0.0
2014-Aug-11 01:13N 40°32' E 014°15'0 0.0
2014-Aug-11 00:28N 40°32' E 014°15'0 0.0
2014-Aug-10 23:31N 40°32' E 014°15'0 0.0
2014-Aug-10 22:04N 40°32' E 014°15'0 0.0
2014-Aug-10 21:16N 40°32' E 014°15'0 0.0
2014-Aug-10 20:28N 40°32' E 014°15'0 0.0
2014-Aug-10 19:28N 40°32' E 014°15'0 0.0
2014-Aug-10 18:25N 40°32' E 014°15'0 0.0
2014-Aug-10 17:25N 40°32' E 014°15'0 0.0
2014-Aug-10 16:31N 40°32' E 014°15'5 4.9
2014-Aug-10 15:30N 40°37' E 014°16'1111.9
2014-Aug-10 14:33N 40°49' E 014°14'1 0.5
2014-Aug-10 12:24N 40°50' E 014°14'0 0.0
2014-Aug-10 10:24N 40°50' E 014°14'0 0.0
2014-Aug-09 21:20N 40°50' E 014°14'0 0.0
2014-Aug-09 18:26N 40°50' E 014°14'  

Dump ship's entire track history